Time;durP1;ratioP1;P1;durP2;ratioP2;P2;SDS_P1;SDS_P2;PMS_P1;PMS_P2;Temp;Humidity;BMP_temperature;BMP_pressure;BME280_temperature;BME280_humidity;BME280_pressure;Samples;Min_cycle;Max_cycle;Signal;HPM_P1;HPM_P2
2023/05/16 00:00:09;;;;;;;10.98;2.60;;;;;;;;;;4958757;28;25075;-77
2023/05/16 00:02:39;;;;;;;13.40;2.53;;;;;;;;;;4959621;28;25069;-77
2023/05/16 00:05:09;;;;;;;14.75;1.77;;;;;;;;;;4960202;28;25170;-75
2023/05/16 00:07:36;;;;;;;14.65;2.58;;;;;;;;;;4960075;28;25146;-76
2023/05/16 00:10:02;;;;;;;16.65;2.47;;;;;;;;;;4959198;28;25069;-77
2023/05/16 00:12:28;;;;;;;21.73;2.58;;;;;;;;;;4961517;28;25064;-78
2023/05/16 00:14:54;;;;;;;14.93;2.78;;;;;;;;;;4960947;28;25105;-78
2023/05/16 00:17:20;;;;;;;13.60;2.58;;;;;;;;;;4961574;28;25059;-79
2023/05/16 00:19:56;;;;;;;9.75;2.20;;;;;;;;;;4965564;28;25063;-79
2023/05/16 00:22:22;;;;;;;19.60;3.28;;;;;;;;;;4962636;28;25059;-77
2023/05/16 00:24:48;;;;;;;12.77;2.20;;;;;;;;;;4960427;28;25071;-78
2023/05/16 00:27:14;;;;;;;20.70;3.33;;;;;;;;;;4960181;28;25051;-77
2023/05/16 00:29:40;;;;;;;9.65;2.28;;;;;;;;;;4959127;28;25095;-78
2023/05/16 00:32:07;;;;;;;13.25;2.88;;;;;;;;;;4960126;28;25079;-80
2023/05/16 00:34:33;;;;;;;17.67;2.75;;;;;;;;;;4959898;28;25080;-78
2023/05/16 00:36:59;;;;;;;12.18;2.13;;;;;;;;;;4961704;28;25097;-77
2023/05/16 00:39:25;;;;;;;16.77;3.20;;;;;;;;;;4974887;28;25061;-76
2023/05/16 00:41:51;;;;;;;15.88;2.05;;;;;;;;;;4967183;28;25075;-78
2023/05/16 00:44:17;;;;;;;10.25;1.98;;;;;;;;;;4961259;28;25064;-79
2023/05/16 00:46:43;;;;;;;14.50;2.33;;;;;;;;;;4962443;28;25174;-80
2023/05/16 00:49:10;;;;;;;20.42;2.58;;;;;;;;;;4963328;28;25114;-80
2023/05/16 00:51:37;;;;;;;16.77;2.75;;;;;;;;;;4962054;28;25056;-78
2023/05/16 00:54:04;;;;;;;12.68;2.20;;;;;;;;;;4960951;28;25082;-77
2023/05/16 00:56:30;;;;;;;14.60;2.60;;;;;;;;;;4960842;28;25064;-80
2023/05/16 00:58:56;;;;;;;17.75;3.13;;;;;;;;;;4963480;28;25062;-79
2023/05/16 01:01:23;;;;;;;11.90;2.90;;;;;;;;;;4961893;28;25171;-77
2023/05/16 01:03:49;;;;;;;10.52;1.70;;;;;;;;;;4961271;28;25081;-77
2023/05/16 01:06:15;;;;;;;11.52;2.10;;;;;;;;;;4959507;28;25097;-76
2023/05/16 01:08:41;;;;;;;19.95;3.33;;;;;;;;;;4962637;28;25090;-76
2023/05/16 01:11:27;;;;;;;9.43;2.63;;;;;;;;;;4962195;28;25067;-78
2023/05/16 01:13:54;;;;;;;13.70;2.65;;;;;;;;;;4958349;28;25063;-78
2023/05/16 01:16:30;;;;;;;25.40;3.78;;;;;;;;;;4965048;28;25067;-77
2023/05/16 01:19:02;;;;;;;18.80;2.88;;;;;;;;;;4966310;28;25146;-78
2023/05/16 01:21:39;;;;;;;12.40;2.15;;;;;;;;;;4957656;28;25061;-77
2023/05/16 01:24:13;;;;;;;12.27;1.95;;;;;;;;;;4962459;28;25065;-78
2023/05/16 01:26:40;;;;;;;7.28;1.85;;;;;;;;;;4963229;28;25056;-77
2023/05/16 01:29:06;;;;;;;20.58;2.92;;;;;;;;;;4962411;28;25083;-77
2023/05/16 01:31:32;;;;;;;19.98;2.40;;;;;;;;;;4961390;28;25057;-78
2023/05/16 01:33:58;;;;;;;13.07;3.55;;;;;;;;;;4959231;28;25101;-76
2023/05/16 01:36:25;;;;;;;12.15;1.80;;;;;;;;;;4958658;28;25076;-77
2023/05/16 01:38:54;;;;;;;14.55;2.58;;;;;;;;;;4971719;28;25071;-76
2023/05/16 01:41:24;;;;;;;14.48;2.05;;;;;;;;;;4976296;28;25066;-76
2023/05/16 01:43:56;;;;;;;16.40;2.55;;;;;;;;;;4979734;28;25076;-75
2023/05/16 01:46:28;;;;;;;12.20;1.80;;;;;;;;;;4979926;28;25083;-78
2023/05/16 01:48:54;;;;;;;;;;;;;;;;;;4974616;28;25129;-77
2023/05/16 01:51:26;;;;;;;10.70;1.98;;;;;;;;;;4966315;28;25072;-77
2023/05/16 01:53:52;;;;;;;15.97;2.00;;;;;;;;;;4970891;28;25081;-76
2023/05/16 01:56:18;;;;;;;8.07;1.58;;;;;;;;;;4968903;28;25083;-76
2023/05/16 01:58:46;;;;;;;9.32;2.38;;;;;;;;;;4964115;28;25064;-77
2023/05/16 02:01:13;;;;;;;10.30;2.03;;;;;;;;;;4965177;28;25049;-77
2023/05/16 02:03:39;;;;;;;17.45;2.72;;;;;;;;;;4964305;28;25069;-76
2023/05/16 02:06:05;;;;;;;9.38;2.20;;;;;;;;;;4965065;28;25108;-77
2023/05/16 02:08:31;;;;;;;11.63;2.45;;;;;;;;;;4962455;28;25069;-76
2023/05/16 02:10:57;;;;;;;12.55;2.03;;;;;;;;;;4968830;28;25084;-77
2023/05/16 02:13:23;;;;;;;19.73;4.15;;;;;;;;;;4971612;28;25078;-77
2023/05/16 02:15:50;;;;;;;19.60;2.15;;;;;;;;;;4962786;28;25094;-77
2023/05/16 02:18:17;;;;;;;8.70;2.53;;;;;;;;;;4961692;28;25152;-77
2023/05/16 02:20:43;;;;;;;7.55;2.03;;;;;;;;;;4966020;28;25048;-76
2023/05/16 02:23:09;;;;;;;12.60;1.98;;;;;;;;;;4964045;28;25127;-78
2023/05/16 02:25:35;;;;;;;12.18;2.50;;;;;;;;;;4966055;28;25135;-76
2023/05/16 02:28:01;;;;;;;9.38;2.45;;;;;;;;;;4970555;28;25142;-74
2023/05/16 02:30:27;;;;;;;12.07;2.00;;;;;;;;;;4975159;28;25078;-76
2023/05/16 02:32:53;;;;;;;23.73;4.25;;;;;;;;;;4966715;28;25084;-78
2023/05/16 02:35:19;;;;;;;19.90;2.95;;;;;;;;;;4964145;28;25069;-76
2023/05/16 02:37:45;;;;;;;18.75;2.20;;;;;;;;;;4964527;28;25079;-77
2023/05/16 02:40:11;;;;;;;14.20;2.20;;;;;;;;;;4961195;28;25100;-77
2023/05/16 02:42:37;;;;;;;19.40;3.15;;;;;;;;;;4961993;28;25085;-77
2023/05/16 02:45:03;;;;;;;12.02;2.08;;;;;;;;;;4979257;28;25076;-77
2023/05/16 02:47:29;;;;;;;11.93;2.53;;;;;;;;;;4963439;28;25139;-76
2023/05/16 02:49:56;;;;;;;15.70;2.30;;;;;;;;;;4963840;28;25066;-77
2023/05/16 02:52:22;;;;;;;11.60;2.70;;;;;;;;;;4963950;28;25142;-76
2023/05/16 02:54:48;;;;;;;17.33;2.20;;;;;;;;;;4961285;28;25103;-77
2023/05/16 02:57:14;;;;;;;14.77;2.13;;;;;;;;;;4959727;28;25075;-78
2023/05/16 02:59:39;;;;;;;20.85;2.28;;;;;;;;;;4962591;28;25047;-79
2023/05/16 03:02:05;;;;;;;7.57;1.67;;;;;;;;;;4964651;28;25083;-80
2023/05/16 03:04:31;;;;;;;13.52;1.88;;;;;;;;;;4966936;28;25057;-77
2023/05/16 03:06:58;;;;;;;11.43;2.00;;;;;;;;;;4962472;28;25138;-78
2023/05/16 03:09:24;;;;;;;11.98;1.98;;;;;;;;;;4965236;28;25061;-75
2023/05/16 03:11:50;;;;;;;15.73;2.78;;;;;;;;;;4964957;28;25130;-77
2023/05/16 03:14:16;;;;;;;11.25;1.63;;;;;;;;;;4960571;28;25070;-76
2023/05/16 03:16:43;;;;;;;9.98;1.88;;;;;;;;;;4962166;28;25064;-78
2023/05/16 03:19:09;;;;;;;15.95;2.13;;;;;;;;;;4964462;28;25053;-76
2023/05/16 03:21:35;;;;;;;12.52;3.08;;;;;;;;;;4967724;28;25066;-77
2023/05/16 03:24:02;;;;;;;12.82;1.90;;;;;;;;;;4968309;28;25060;-79
2023/05/16 03:26:29;;;;;;;11.05;1.60;;;;;;;;;;4968928;28;25103;-77
2023/05/16 03:28:55;;;;;;;12.43;2.75;;;;;;;;;;4964582;28;25069;-78
2023/05/16 03:31:20;;;;;;;17.90;2.22;;;;;;;;;;4963856;28;25072;-76
2023/05/16 03:33:46;;;;;;;7.28;1.77;;;;;;;;;;4957428;28;25061;-76
2023/05/16 03:36:13;;;;;;;10.10;2.00;;;;;;;;;;4958937;28;25082;-77
2023/05/16 03:38:39;;;;;;;14.15;3.33;;;;;;;;;;4964902;28;25059;-76
2023/05/16 03:41:05;;;;;;;10.20;1.90;;;;;;;;;;4960853;28;25091;-78
2023/05/16 03:43:31;;;;;;;22.15;3.88;;;;;;;;;;4974901;28;25123;-78
2023/05/16 03:45:57;;;;;;;14.27;2.22;;;;;;;;;;4958721;28;25043;-78
2023/05/16 03:48:23;;;;;;;14.20;1.73;;;;;;;;;;4959101;28;25066;-77
2023/05/16 03:50:50;;;;;;;10.23;2.13;;;;;;;;;;4961307;28;25050;-78
2023/05/16 03:53:16;;;;;;;10.27;1.73;;;;;;;;;;4960017;28;25089;-77
2023/05/16 03:55:42;;;;;;;13.82;2.40;;;;;;;;;;4963550;28;25067;-77
2023/05/16 03:58:08;;;;;;;10.77;1.98;;;;;;;;;;4962168;28;25137;-79
2023/05/16 04:00:35;;;;;;;8.98;1.75;;;;;;;;;;4967332;28;25063;-79
2023/05/16 04:03:01;;;;;;;7.13;1.88;;;;;;;;;;4958871;28;25054;-77
2023/05/16 04:05:28;;;;;;;11.15;2.05;;;;;;;;;;4962455;28;25075;-76
2023/05/16 04:07:54;;;;;;;12.13;3.03;;;;;;;;;;4962983;28;25068;-78
2023/05/16 04:10:20;;;;;;;15.73;2.42;;;;;;;;;;4961357;28;25070;-76
2023/05/16 04:12:46;;;;;;;12.60;3.22;;;;;;;;;;4960896;28;24861;-76
2023/05/16 04:15:12;;;;;;;6.35;1.70;;;;;;;;;;4965681;28;25070;-77
2023/05/16 04:17:39;;;;;;;11.90;1.80;;;;;;;;;;4968663;28;25070;-79
2023/05/16 04:20:05;;;;;;;8.18;2.72;;;;;;;;;;4965534;28;25138;-78
2023/05/16 04:22:31;;;;;;;10.13;2.67;;;;;;;;;;4964187;28;25146;-78
2023/05/16 04:24:57;;;;;;;16.17;2.05;;;;;;;;;;4958533;28;25168;-77
2023/05/16 04:27:23;;;;;;;10.48;2.10;;;;;;;;;;4961096;28;25101;-76
2023/05/16 04:29:50;;;;;;;9.95;2.40;;;;;;;;;;4960130;28;25066;-77
2023/05/16 04:32:16;;;;;;;17.75;2.00;;;;;;;;;;4957413;28;25099;-77
2023/05/16 04:34:43;;;;;;;12.73;2.20;;;;;;;;;;4959674;28;25153;-76
2023/05/16 04:37:09;;;;;;;8.77;1.70;;;;;;;;;;4963147;28;25059;-77
2023/05/16 04:39:35;;;;;;;9.30;1.98;;;;;;;;;;4965266;28;25054;-75
2023/05/16 04:42:02;;;;;;;10.88;3.15;;;;;;;;;;4961884;28;25100;-78
2023/05/16 04:44:29;;;;;;;14.05;2.15;;;;;;;;;;4959382;28;25057;-78
2023/05/16 04:46:55;;;;;;;7.43;1.73;;;;;;;;;;4963297;28;25054;-76
2023/05/16 04:49:21;;;;;;;12.05;1.85;;;;;;;;;;4961149;28;25079;-78
2023/05/16 04:51:48;;;;;;;12.32;2.40;;;;;;;;;;4962514;28;25094;-76
2023/05/16 04:54:14;;;;;;;9.07;1.88;;;;;;;;;;4963018;28;25045;-77
2023/05/16 04:56:40;;;;;;;9.10;2.75;;;;;;;;;;4960901;28;25144;-78
2023/05/16 04:59:06;;;;;;;14.23;2.83;;;;;;;;;;4965581;28;25090;-79
2023/05/16 05:01:32;;;;;;;15.57;2.40;;;;;;;;;;4963049;28;25091;-77
2023/05/16 05:03:58;;;;;;;11.75;2.10;;;;;;;;;;4964994;28;25104;-76
2023/05/16 05:06:24;;;;;;;8.30;1.83;;;;;;;;;;4964741;28;25055;-78
2023/05/16 05:08:50;;;;;;;17.23;1.98;;;;;;;;;;4957556;28;25153;-76
2023/05/16 05:11:16;;;;;;;8.43;1.80;;;;;;;;;;4957546;28;25099;-76
2023/05/16 05:13:42;;;;;;;11.45;2.13;;;;;;;;;;4966851;28;25078;-78
2023/05/16 05:16:08;;;;;;;14.73;1.80;;;;;;;;;;4970619;28;25058;-77
2023/05/16 05:18:34;;;;;;;11.13;1.92;;;;;;;;;;4959612;28;25136;-76
2023/05/16 05:21:00;;;;;;;12.07;1.48;;;;;;;;;;4967533;28;25060;-78
2023/05/16 05:23:26;;;;;;;8.25;1.92;;;;;;;;;;4976560;28;25059;-78
2023/05/16 05:25:52;;;;;;;9.02;1.83;;;;;;;;;;4971107;28;25079;-79
2023/05/16 05:28:17;;;;;;;11.75;1.95;;;;;;;;;;4961891;28;25083;-73
2023/05/16 05:30:43;;;;;;;8.18;1.48;;;;;;;;;;4961924;28;25142;-77
2023/05/16 05:33:11;;;;;;;9.55;2.63;;;;;;;;;;4965029;28;25140;-79
2023/05/16 05:35:37;;;;;;;7.10;1.60;;;;;;;;;;4962022;28;25091;-75
2023/05/16 05:38:03;;;;;;;10.00;1.83;;;;;;;;;;4961701;28;25053;-78
2023/05/16 05:40:29;;;;;;;7.28;1.13;;;;;;;;;;4963449;28;25148;-74
2023/05/16 05:42:55;;;;;;;7.07;1.38;;;;;;;;;;4960254;28;25154;-76
2023/05/16 05:45:20;;;;;;;10.55;2.00;;;;;;;;;;4962549;28;25121;-76
2023/05/16 05:47:46;;;;;;;7.00;2.13;;;;;;;;;;4962758;28;25143;-78
2023/05/16 05:50:14;;;;;;;9.30;1.60;;;;;;;;;;4961097;28;25138;-77
2023/05/16 05:52:40;;;;;;;6.20;1.13;;;;;;;;;;4963467;28;25111;-78
2023/05/16 05:55:06;;;;;;;9.93;1.55;;;;;;;;;;4964694;28;25090;-77
2023/05/16 05:57:32;;;;;;;13.48;2.75;;;;;;;;;;4963643;28;25090;-77
2023/05/16 05:59:58;;;;;;;12.52;2.05;;;;;;;;;;4962308;28;25084;-75
2023/05/16 06:02:24;;;;;;;9.45;2.22;;;;;;;;;;4976103;28;25061;-76
2023/05/16 06:04:50;;;;;;;11.23;1.52;;;;;;;;;;4961160;28;25105;-78
2023/05/16 06:07:17;;;;;;;15.88;2.28;;;;;;;;;;4962513;28;25165;-78
2023/05/16 06:09:43;;;;;;;12.63;2.60;;;;;;;;;;4963012;28;25045;-76
2023/05/16 06:12:09;;;;;;;21.95;2.83;;;;;;;;;;4961482;28;25067;-76
2023/05/16 06:14:35;;;;;;;4.15;1.10;;;;;;;;;;4962481;28;25086;-78
2023/05/16 06:17:01;;;;;;;6.15;1.50;;;;;;;;;;4963370;28;25095;-78
2023/05/16 06:19:27;;;;;;;8.80;1.65;;;;;;;;;;4963420;28;25150;-77
2023/05/16 06:21:53;;;;;;;9.05;1.83;;;;;;;;;;4962560;28;25098;-79
2023/05/16 06:24:19;;;;;;;8.75;1.30;;;;;;;;;;4960977;28;25070;-77
2023/05/16 06:26:48;;;;;;;7.38;1.80;;;;;;;;;;4959728;28;25125;-79
2023/05/16 06:29:14;;;;;;;10.57;1.50;;;;;;;;;;4960382;28;25148;-78
2023/05/16 06:31:40;;;;;;;6.07;1.13;;;;;;;;;;4961222;28;25082;-77
2023/05/16 06:34:06;;;;;;;6.70;1.33;;;;;;;;;;4964641;28;25082;-76
2023/05/16 06:36:32;;;;;;;6.38;1.50;;;;;;;;;;4961383;28;25093;-79
2023/05/16 06:38:58;;;;;;;7.07;1.35;;;;;;;;;;4960902;28;25075;-74
2023/05/16 06:41:25;;;;;;;6.97;1.35;;;;;;;;;;4957402;28;25070;-76
2023/05/16 06:43:51;;;;;;;5.47;1.25;;;;;;;;;;4958471;28;25133;-77
2023/05/16 06:46:17;;;;;;;10.63;1.75;;;;;;;;;;4960345;28;25077;-80
2023/05/16 06:48:43;;;;;;;9.85;1.42;;;;;;;;;;4961233;28;25047;-78
2023/05/16 06:51:09;;;;;;;9.80;1.65;;;;;;;;;;4960557;28;25075;-79
2023/05/16 06:53:35;;;;;;;14.05;1.90;;;;;;;;;;4957980;28;25098;-74
2023/05/16 06:56:01;;;;;;;5.28;1.30;;;;;;;;;;4960496;28;25069;-80
2023/05/16 06:58:27;;;;;;;6.50;1.23;;;;;;;;;;4958150;28;25161;-78
2023/05/16 07:00:53;;;;;;;9.02;1.73;;;;;;;;;;4958673;28;25059;-79
2023/05/16 07:03:19;;;;;;;12.70;1.98;;;;;;;;;;4955605;28;25117;-77
2023/05/16 07:05:45;;;;;;;5.72;1.45;;;;;;;;;;4959711;28;25054;-77
2023/05/16 07:08:11;;;;;;;5.63;1.00;;;;;;;;;;4957661;28;25069;-77
2023/05/16 07:10:38;;;;;;;3.70;0.90;;;;;;;;;;4959221;28;25068;-78
2023/05/16 07:13:03;;;;;;;5.70;1.10;;;;;;;;;;4958634;28;25168;-80
2023/05/16 07:15:30;;;;;;;9.48;1.48;;;;;;;;;;4958855;28;25057;-80
2023/05/16 07:17:56;;;;;;;9.70;1.35;;;;;;;;;;4957611;28;25063;-76
2023/05/16 07:20:22;;;;;;;11.48;1.40;;;;;;;;;;4957851;28;25044;-76
2023/05/16 07:22:48;;;;;;;10.90;1.73;;;;;;;;;;4958202;28;25140;-74
2023/05/16 07:25:14;;;;;;;6.40;1.02;;;;;;;;;;4959435;28;25100;-79
2023/05/16 07:27:43;;;;;;;4.15;1.08;;;;;;;;;;4973251;28;25056;-75
2023/05/16 07:30:09;;;;;;;7.45;1.35;;;;;;;;;;4955313;28;25050;-77
2023/05/16 07:32:36;;;;;;;5.63;0.85;;;;;;;;;;4958386;28;25157;-76
2023/05/16 07:35:02;;;;;;;5.00;0.90;;;;;;;;;;4958313;28;25060;-75
2023/05/16 07:37:29;;;;;;;4.88;0.75;;;;;;;;;;4958129;28;25068;-77
2023/05/16 07:39:55;;;;;;;5.97;1.48;;;;;;;;;;4958127;28;25154;-76
2023/05/16 07:42:21;;;;;;;6.22;1.42;;;;;;;;;;4959265;28;25051;-76
2023/05/16 07:44:47;;;;;;;7.00;1.40;;;;;;;;;;4960547;28;25058;-77
2023/05/16 07:47:13;;;;;;;6.15;0.98;;;;;;;;;;4960357;28;25053;-77
2023/05/16 07:49:40;;;;;;;3.63;1.08;;;;;;;;;;4974995;28;25081;-75
2023/05/16 07:52:06;;;;;;;8.25;1.30;;;;;;;;;;4972098;28;25066;-74
2023/05/16 07:54:34;;;;;;;9.90;1.42;;;;;;;;;;4975333;28;25062;-76
2023/05/16 07:57:00;;;;;;;6.20;1.70;;;;;;;;;;4969445;28;25081;-78
2023/05/16 07:59:26;;;;;;;7.93;1.23;;;;;;;;;;4961637;28;25088;-78
2023/05/16 08:01:52;;;;;;;4.60;0.90;;;;;;;;;;4961817;28;25109;-79
2023/05/16 08:04:18;;;;;;;9.52;1.05;;;;;;;;;;4959382;28;24917;-75
2023/05/16 08:06:44;;;;;;;8.07;1.42;;;;;;;;;;4959325;28;25104;-77
2023/05/16 08:09:10;;;;;;;9.88;1.20;;;;;;;;;;4959277;28;25111;-77
2023/05/16 08:11:38;;;;;;;5.25;1.05;;;;;;;;;;4956496;28;25063;-77
2023/05/16 08:14:04;;;;;;;5.65;1.60;;;;;;;;;;4956812;28;25125;-77
2023/05/16 08:16:30;;;;;;;7.78;1.13;;;;;;;;;;4955473;28;25070;-78
2023/05/16 08:18:56;;;;;;;9.40;1.77;;;;;;;;;;4960763;28;25195;-77
2023/05/16 08:21:22;;;;;;;2.95;1.17;;;;;;;;;;4960537;28;25074;-79
2023/05/16 08:23:48;;;;;;;4.05;1.05;;;;;;;;;;4960127;28;25130;-77
2023/05/16 08:26:15;;;;;;;6.07;1.00;;;;;;;;;;4956076;28;25154;-78
2023/05/16 08:28:42;;;;;;;9.45;1.23;;;;;;;;;;4956799;28;25069;-76
2023/05/16 08:31:08;;;;;;;7.10;1.48;;;;;;;;;;4957654;28;25077;-76
2023/05/16 08:33:34;;;;;;;4.18;0.88;;;;;;;;;;4958617;28;25099;-76
2023/05/16 08:36:00;;;;;;;5.10;1.10;;;;;;;;;;4956010;28;25059;-78
2023/05/16 08:38:26;;;;;;;7.72;1.33;;;;;;;;;;4955393;28;25142;-74
2023/05/16 08:40:52;;;;;;;7.78;1.27;;;;;;;;;;4959745;28;25064;-73
2023/05/16 08:43:18;;;;;;;3.35;1.17;;;;;;;;;;4959043;28;25148;-75
2023/05/16 08:45:45;;;;;;;7.80;1.08;;;;;;;;;;4960386;28;25047;-76
2023/05/16 08:48:10;;;;;;;6.15;1.70;;;;;;;;;;4958372;28;25074;-78
2023/05/16 08:50:37;;;;;;;5.95;1.33;;;;;;;;;;4958531;28;25104;-81
2023/05/16 08:53:07;;;;;;;5.47;0.98;;;;;;;;;;4958284;28;25048;-77
2023/05/16 08:55:34;;;;;;;6.22;1.10;;;;;;;;;;4974453;28;25063;-77
2023/05/16 08:58:01;;;;;;;4.05;0.80;;;;;;;;;;4960217;28;25071;-75
2023/05/16 09:00:27;;;;;;;5.50;1.77;;;;;;;;;;4957970;28;25067;-75
2023/05/16 09:02:54;;;;;;;5.80;1.00;;;;;;;;;;4963931;28;25067;-77
2023/05/16 09:05:22;;;;;;;2.80;0.90;;;;;;;;;;4957655;28;25086;-77
2023/05/16 09:07:48;;;;;;;4.13;1.10;;;;;;;;;;4959099;28;26209;-76
2023/05/16 09:10:15;;;;;;;4.63;0.73;;;;;;;;;;4959394;28;25093;-74
2023/05/16 09:12:42;;;;;;;7.38;0.90;;;;;;;;;;4957469;28;25127;-76
2023/05/16 09:15:09;;;;;;;6.32;1.05;;;;;;;;;;4958158;28;25047;-76
2023/05/16 09:17:39;;;;;;;8.02;1.67;;;;;;;;;;4958541;28;25076;-77
2023/05/16 09:20:10;;;;;;;4.68;1.40;;;;;;;;;;4958275;28;25150;-76
2023/05/16 09:22:36;;;;;;;5.65;1.15;;;;;;;;;;4959204;28;25059;-76
2023/05/16 09:25:03;;;;;;;3.60;1.13;;;;;;;;;;4959392;28;25103;-76
2023/05/16 09:27:30;;;;;;;5.43;0.88;;;;;;;;;;4956915;28;25073;-78
2023/05/16 09:29:57;;;;;;;8.57;1.17;;;;;;;;;;4954897;28;25061;-75
2023/05/16 09:32:23;;;;;;;9.88;1.67;;;;;;;;;;4957598;28;25093;-75
2023/05/16 09:34:50;;;;;;;5.70;0.70;;;;;;;;;;4959069;28;25171;-75
2023/05/16 09:37:16;;;;;;;3.70;0.70;;;;;;;;;;4959563;28;25060;-77
2023/05/16 09:39:46;;;;;;;4.78;1.58;;;;;;;;;;4960072;28;25054;-76
2023/05/16 09:42:13;;;;;;;4.90;1.35;;;;;;;;;;4958794;28;25126;-76
2023/05/16 09:44:39;;;;;;;5.32;0.65;;;;;;;;;;4959845;28;25098;-77
2023/05/16 09:47:06;;;;;;;5.22;0.90;;;;;;;;;;4957229;28;25058;-78
2023/05/16 09:49:32;;;;;;;3.80;1.27;;;;;;;;;;4960478;28;25048;-77
2023/05/16 09:52:01;;;;;;;3.35;1.27;;;;;;;;;;4959289;28;25049;-75
2023/05/16 09:54:34;;;;;;;6.05;0.93;;;;;;;;;;4953646;28;25077;-73
2023/05/16 09:57:00;;;;;;;6.95;1.42;;;;;;;;;;4958779;28;25125;-76
2023/05/16 09:59:29;;;;;;;2.90;1.00;;;;;;;;;;4958320;28;25069;-73
2023/05/16 10:01:58;;;;;;;5.03;1.20;;;;;;;;;;4961715;28;25065;-73
2023/05/16 10:04:24;;;;;;;8.38;1.35;;;;;;;;;;4955535;28;25070;-77
2023/05/16 10:06:51;;;;;;;5.65;0.88;;;;;;;;;;4960446;28;25156;-76
2023/05/16 10:09:18;;;;;;;6.18;1.10;;;;;;;;;;4959473;28;25096;-76
2023/05/16 10:11:44;;;;;;;6.28;1.38;;;;;;;;;;4957297;28;25085;-77
2023/05/16 10:14:11;;;;;;;4.45;0.82;;;;;;;;;;4955875;28;25082;-77
2023/05/16 10:16:39;;;;;;;2.05;0.60;;;;;;;;;;4959562;28;25080;-77
2023/05/16 10:19:05;;;;;;;4.22;0.73;;;;;;;;;;4962948;28;25061;-76
2023/05/16 10:21:32;;;;;;;1.67;0.50;;;;;;;;;;4966442;28;25070;-79
2023/05/16 10:23:59;;;;;;;5.70;1.65;;;;;;;;;;4965430;28;25071;-73
2023/05/16 10:26:25;;;;;;;5.70;0.95;;;;;;;;;;4963041;28;25055;-80
2023/05/16 10:28:52;;;;;;;5.88;1.40;;;;;;;;;;4965087;28;25126;-78
2023/05/16 10:31:18;;;;;;;5.25;0.75;;;;;;;;;;4960358;28;25054;-77
2023/05/16 10:33:45;;;;;;;5.07;0.82;;;;;;;;;;4961020;28;25062;-79
2023/05/16 10:36:11;;;;;;;6.22;0.80;;;;;;;;;;4961137;28;25055;-77
2023/05/16 10:38:38;;;;;;;4.78;1.10;;;;;;;;;;4959639;28;25058;-79
2023/05/16 10:41:04;;;;;;;4.72;0.93;;;;;;;;;;4962091;28;25127;-74
2023/05/16 10:43:32;;;;;;;5.57;1.08;;;;;;;;;;4961541;28;25069;-78
2023/05/16 10:46:02;;;;;;;5.88;0.90;;;;;;;;;;4962784;28;25127;-77
2023/05/16 10:48:35;;;;;;;4.82;1.00;;;;;;;;;;4963421;28;25065;-76
2023/05/16 10:51:02;;;;;;;5.90;0.80;;;;;;;;;;4963410;28;25069;-78
2023/05/16 10:53:34;;;;;;;2.00;0.80;;;;;;;;;;4963703;28;25062;-76
2023/05/16 10:56:00;;;;;;;5.07;0.90;;;;;;;;;;4965281;28;25080;-79
2023/05/16 10:58:36;;;;;;;3.90;1.10;;;;;;;;;;4963942;28;25062;-78
2023/05/16 11:01:15;;;;;;;2.20;0.90;;;;;;;;;;4960111;28;25495;-78
2023/05/16 11:03:59;;;;;;;1.23;0.60;;;;;;;;;;4958361;28;25134;-75
2023/05/16 11:06:25;;;;;;;10.25;1.52;;;;;;;;;;4960324;28;25072;-77
2023/05/16 11:09:08;;;;;;;3.55;0.70;;;;;;;;;;4979108;28;25153;-80
2023/05/16 11:11:48;;;;;;;5.60;0.90;;;;;;;;;;4960575;28;25090;-78
2023/05/16 11:14:17;;;;;;;7.65;1.40;;;;;;;;;;4962702;28;25069;-80
2023/05/16 11:16:47;;;;;;;2.83;1.13;;;;;;;;;;4962509;28;25073;-77
2023/05/16 11:19:13;;;;;;;2.45;1.45;;;;;;;;;;4961901;28;25082;-79
2023/05/16 11:21:58;;;;;;;5.03;1.00;;;;;;;;;;4966938;28;25145;-77
2023/05/16 11:24:28;;;;;;;6.97;0.98;;;;;;;;;;4966016;28;25061;-77
2023/05/16 11:26:54;;;;;;;4.43;0.77;;;;;;;;;;4969697;28;25141;-79
2023/05/16 11:29:21;;;;;;;2.60;0.85;;;;;;;;;;4968474;28;25066;-77
2023/05/16 11:31:47;;;;;;;1.85;0.65;;;;;;;;;;4962886;28;25063;-77
2023/05/16 11:34:13;;;;;;;2.40;0.60;;;;;;;;;;4959215;28;25072;-79
2023/05/16 11:36:39;;;;;;;6.07;1.60;;;;;;;;;;4958867;28;25070;-78
2023/05/16 11:39:08;;;;;;;4.45;0.90;;;;;;;;;;4961847;28;25091;-79
2023/05/16 11:41:34;;;;;;;2.45;1.02;;;;;;;;;;4960268;28;25139;-77
2023/05/16 11:44:00;;;;;;;3.08;0.80;;;;;;;;;;4962647;28;25145;-80
2023/05/16 11:46:26;;;;;;;1.42;0.70;;;;;;;;;;4963467;28;25045;-79
2023/05/16 11:48:52;;;;;;;2.80;1.00;;;;;;;;;;4960838;28;25165;-77
2023/05/16 11:51:19;;;;;;;4.47;0.65;;;;;;;;;;4960472;28;25100;-77
2023/05/16 11:53:46;;;;;;;5.55;0.68;;;;;;;;;;4959565;28;25056;-77
2023/05/16 11:56:12;;;;;;;5.75;0.90;;;;;;;;;;4959736;28;25063;-75
2023/05/16 11:58:38;;;;;;;4.82;0.93;;;;;;;;;;4962523;28;25046;-76
2023/05/16 12:01:04;;;;;;;7.60;0.80;;;;;;;;;;4965670;28;25077;-76
2023/05/16 12:03:34;;;;;;;4.25;1.40;;;;;;;;;;4960126;28;25069;-80
2023/05/16 12:06:00;;;;;;;4.15;0.93;;;;;;;;;;4965219;28;25058;-77
2023/05/16 12:08:26;;;;;;;5.22;1.15;;;;;;;;;;4961439;28;25100;-80
2023/05/16 12:10:53;;;;;;;15.63;1.13;;;;;;;;;;4962312;28;25106;-76
2023/05/16 12:13:20;;;;;;;3.28;1.48;;;;;;;;;;4958546;28;25052;-75
2023/05/16 12:15:46;;;;;;;3.45;0.95;;;;;;;;;;4959779;28;25059;-77
2023/05/16 12:18:12;;;;;;;5.47;0.88;;;;;;;;;;4956564;28;25077;-77
2023/05/16 12:20:39;;;;;;;7.07;1.05;;;;;;;;;;4960959;28;25059;-78
2023/05/16 12:23:05;;;;;;;6.10;1.38;;;;;;;;;;4960744;28;25147;-78
2023/05/16 12:25:32;;;;;;;2.53;0.93;;;;;;;;;;4958795;28;25062;-78
2023/05/16 12:27:59;;;;;;;6.82;1.13;;;;;;;;;;4959920;28;25101;-77
2023/05/16 12:30:26;;;;;;;13.02;0.93;;;;;;;;;;4958969;28;25068;-76
2023/05/16 12:32:56;;;;;;;7.07;1.00;;;;;;;;;;4964057;28;25057;-77
2023/05/16 12:35:22;;;;;;;6.72;1.23;;;;;;;;;;4960733;28;25061;-78
2023/05/16 12:37:49;;;;;;;3.28;1.02;;;;;;;;;;4960544;28;25056;-75
2023/05/16 12:40:16;;;;;;;6.43;1.08;;;;;;;;;;4957893;28;25152;-77
2023/05/16 12:42:45;;;;;;;6.10;0.90;;;;;;;;;;4959366;28;25059;-79
2023/05/16 12:45:15;;;;;;;9.88;1.02;;;;;;;;;;4962757;28;25103;-75
2023/05/16 12:47:41;;;;;;;5.13;1.15;;;;;;;;;;4960571;28;25099;-80
2023/05/16 12:50:15;;;;;;;2.80;1.00;;;;;;;;;;4958729;28;25087;-79
2023/05/16 12:55:13;;;;;;;6.25;1.08;;;;;;;;;;4990567;28;25192;-67
2023/05/16 12:57:42;;;;;;;3.70;0.90;;;;;;;;;;4993081;28;25063;-66
2023/05/16 13:00:09;;;;;;;3.55;0.95;;;;;;;;;;4983961;28;25166;-66
2023/05/16 13:02:35;;;;;;;4.40;0.93;;;;;;;;;;4973175;28;25074;-65
2023/05/16 13:05:01;;;;;;;4.47;0.90;;;;;;;;;;4976054;28;25077;-66
2023/05/16 13:07:27;;;;;;;3.63;0.85;;;;;;;;;;4972709;28;25064;-64
2023/05/16 13:09:52;;;;;;;8.07;1.27;;;;;;;;;;4973222;28;25074;-68
2023/05/16 13:12:19;;;;;;;1.63;0.80;;;;;;;;;;4970771;28;25091;-66
2023/05/16 13:14:45;;;;;;;2.58;0.80;;;;;;;;;;4973699;28;25073;-67
2023/05/16 13:17:11;;;;;;;4.07;1.45;;;;;;;;;;4971829;28;25074;-68
2023/05/16 13:19:37;;;;;;;5.22;0.90;;;;;;;;;;4972946;28;25075;-68
2023/05/16 13:22:03;;;;;;;4.93;0.63;;;;;;;;;;4972602;28;25067;-66
2023/05/16 13:24:29;;;;;;;6.35;1.35;;;;;;;;;;4970686;28;25055;-66
2023/05/16 13:26:55;;;;;;;2.55;0.82;;;;;;;;;;4974909;28;25061;-66
2023/05/16 13:29:21;;;;;;;3.53;1.10;;;;;;;;;;4970013;28;25078;-68
2023/05/16 13:31:47;;;;;;;4.65;1.15;;;;;;;;;;4974138;28;25079;-68
2023/05/16 13:34:13;;;;;;;5.85;0.88;;;;;;;;;;4970591;28;25058;-67
2023/05/16 13:36:39;;;;;;;4.53;0.85;;;;;;;;;;4955888;28;25063;-66
2023/05/16 13:39:05;;;;;;;1.15;0.70;;;;;;;;;;4970823;28;25127;-64
2023/05/16 13:41:32;;;;;;;5.15;1.10;;;;;;;;;;4955622;28;25072;-65
2023/05/16 13:43:58;;;;;;;3.42;0.93;;;;;;;;;;4971249;28;25141;-64
2023/05/16 13:46:24;;;;;;;4.53;0.70;;;;;;;;;;4971088;28;25061;-65
2023/05/16 13:48:50;;;;;;;2.80;0.73;;;;;;;;;;4972186;28;25141;-67
2023/05/16 13:51:16;;;;;;;5.32;0.93;;;;;;;;;;4974403;28;25061;-67
2023/05/16 13:53:42;;;;;;;2.40;0.85;;;;;;;;;;4974275;28;25056;-67
2023/05/16 13:56:08;;;;;;;5.18;0.88;;;;;;;;;;4975488;28;25063;-67
2023/05/16 13:58:34;;;;;;;1.95;0.85;;;;;;;;;;4976515;28;25072;-67
2023/05/16 14:01:00;;;;;;;5.90;1.05;;;;;;;;;;4976326;28;25157;-67
2023/05/16 14:03:26;;;;;;;4.13;0.88;;;;;;;;;;4974072;28;25054;-66
2023/05/16 14:05:53;;;;;;;2.45;1.10;;;;;;;;;;4959856;28;25077;-68
2023/05/16 14:08:19;;;;;;;2.00;1.00;;;;;;;;;;4974747;28;25110;-68
2023/05/16 14:10:44;;;;;;;4.80;0.93;;;;;;;;;;5007810;22;25112;-64
2023/05/16 14:13:11;;;;;;;7.03;0.93;;;;;;;;;;4994361;28;25069;-65
2023/05/16 14:15:37;;;;;;;3.50;0.60;;;;;;;;;;4995227;28;25138;-68
2023/05/16 14:18:03;;;;;;;4.35;0.98;;;;;;;;;;4992692;28;25042;-64
2023/05/16 14:20:30;;;;;;;5.57;0.63;;;;;;;;;;4995433;28;25145;-64
2023/05/16 14:22:56;;;;;;;1.92;0.63;;;;;;;;;;4994956;28;25073;-64
2023/05/16 14:25:22;;;;;;;2.53;0.88;;;;;;;;;;4996402;28;25054;-67
2023/05/16 14:27:49;;;;;;;1.10;0.60;;;;;;;;;;4998853;28;25052;-67
2023/05/16 14:30:15;;;;;;;6.20;0.80;;;;;;;;;;4999168;28;25089;-65
2023/05/16 14:32:41;;;;;;;6.65;1.55;;;;;;;;;;4992702;28;25107;-65
2023/05/16 14:35:10;;;;;;;1.75;0.80;;;;;;;;;;4994795;28;25075;-63
2023/05/16 14:37:36;;;;;;;5.97;1.02;;;;;;;;;;4993746;28;25191;-64